createdAt,value
2022-10-17T00:00:49.011Z,101451.51
2022-10-17T00:03:39.591Z,101439.64
2022-10-17T00:06:14.835Z,101435.30
2022-10-17T00:08:45.583Z,101450.63
2022-10-17T00:11:20.114Z,101444.94
2022-10-17T00:13:55.289Z,101467.79
2022-10-17T00:16:29.691Z,101472.75
2022-10-17T00:19:01.676Z,101466.58
2022-10-17T00:21:34.268Z,101470.04
2022-10-17T00:24:07.005Z,101468.04
2022-10-17T00:26:39.073Z,101474.02
2022-10-17T00:29:11.516Z,101469.21
2022-10-17T00:31:43.599Z,101466.34
2022-10-17T00:34:15.682Z,101460.41
2022-10-17T00:36:47.559Z,101456.65
2022-10-17T00:39:19.434Z,101456.18
2022-10-17T00:41:51.538Z,101453.69
2022-10-17T00:44:55.451Z,101456.11
2022-10-17T00:47:28.069Z,101458.84
2022-10-17T00:52:37.948Z,101450.56
2022-10-17T00:55:16.558Z,101452.07
2022-10-17T00:57:50.075Z,101451.48
2022-10-17T01:00:25.111Z,101442.89
2022-10-17T01:02:57.116Z,101440.16
2022-10-17T01:05:29.366Z,101446.73
2022-10-17T01:08:01.671Z,101442.88
2022-10-17T01:10:40.824Z,101439.26
2022-10-17T01:13:20.019Z,101462.57
2022-10-17T01:16:03.955Z,101455.16
2022-10-17T01:18:48.528Z,101473.46
2022-10-17T01:21:34.999Z,101478.77
2022-10-17T01:24:50.510Z,101481.98
2022-10-17T01:27:50.712Z,101488.81
2022-10-17T01:30:34.826Z,101484.19
2022-10-17T01:33:12.084Z,101481.08
2022-10-17T01:35:51.222Z,101483.66
2022-10-17T01:38:26.520Z,101486.73
2022-10-17T01:41:04.772Z,101464.36
2022-10-17T01:43:43.343Z,101476.48
2022-10-17T01:46:23.978Z,101474.48
2022-10-17T01:48:58.135Z,101452.91
2022-10-17T01:51:37.243Z,101455.75
2022-10-17T01:54:17.943Z,101461.75
2022-10-17T01:56:52.936Z,101455.26
2022-10-17T01:59:29.027Z,101455.58
2022-10-17T02:02:02.851Z,101458.20
2022-10-17T02:04:35.737Z,101452.84
2022-10-17T02:07:14.442Z,101462.67
2022-10-17T02:09:46.985Z,101453.05
2022-10-17T02:12:46.067Z,101454.90
2022-10-17T02:15:37.281Z,101463.64
2022-10-17T02:18:24.697Z,101470.05
2022-10-17T02:21:02.151Z,101485.09
2022-10-17T02:23:41.767Z,101491.36
2022-10-17T02:26:20.745Z,101490.48
2022-10-17T02:28:59.688Z,101491.60
2022-10-17T02:31:37.653Z,101496.27
2022-10-17T02:34:16.507Z,101471.80
2022-10-17T02:36:55.075Z,101490.92
2022-10-17T02:39:26.432Z,101494.86
2022-10-17T02:42:01.609Z,101494.79
2022-10-17T02:44:35.223Z,101493.81
2022-10-17T02:47:14.238Z,101493.64
2022-10-17T02:49:50.989Z,101491.96
2022-10-17T02:52:29.139Z,101493.39
2022-10-17T02:55:08.325Z,101479.52
2022-10-17T02:57:42.694Z,101487.41
2022-10-17T03:00:17.941Z,101487.48
2022-10-17T03:02:53.798Z,101491.86
2022-10-17T03:05:28.806Z,101496.48
2022-10-17T03:08:00.740Z,101482.00
2022-10-17T03:10:32.767Z,101495.23
2022-10-17T03:13:04.697Z,101493.38
2022-10-17T03:15:46.503Z,101493.18
2022-10-17T03:18:19.063Z,101493.68
2022-10-17T03:20:51.928Z,101495.88
2022-10-17T03:23:23.937Z,101495.98
2022-10-17T03:25:57.484Z,101499.63
2022-10-17T03:28:29.560Z,101501.75
2022-10-17T03:31:07.612Z,101500.02
2022-10-17T03:33:41.125Z,101496.20
2022-10-17T03:36:16.806Z,101495.69
2022-10-17T03:38:49.960Z,101495.39
2022-10-17T03:41:22.323Z,101507.06
2022-10-17T03:43:55.070Z,101516.81
2022-10-17T03:46:27.792Z,101511.20
2022-10-17T03:49:00.689Z,101512.38
2022-10-17T03:51:33.851Z,101514.67
2022-10-17T03:54:08.836Z,101520.48
2022-10-17T03:56:41.293Z,101514.80
2022-10-17T03:59:17.454Z,101516.06
2022-10-17T04:01:55.660Z,101521.58
2022-10-17T04:04:27.944Z,101519.52
2022-10-17T04:07:00.333Z,101524.40
2022-10-17T04:09:32.318Z,101517.70
2022-10-17T04:12:11.094Z,101514.33
2022-10-17T04:14:43.255Z,101509.29
2022-10-17T04:17:19.061Z,101510.16
2022-10-17T04:19:53.182Z,101508.38
2022-10-17T04:22:31.167Z,101508.98
2022-10-17T04:25:03.648Z,101509.65
2022-10-17T04:27:40.957Z,101509.23
2022-10-17T04:30:14.113Z,101510.17
2022-10-17T04:32:46.231Z,101512.88
2022-10-17T04:35:23.462Z,101508.52
2022-10-17T04:38:02.359Z,101512.11
2022-10-17T04:40:35.893Z,101512.95
2022-10-17T04:43:08.092Z,101512.20
2022-10-17T04:45:43.664Z,101517.26
2022-10-17T04:48:18.545Z,101518.81
2022-10-17T04:50:56.341Z,101520.69
2022-10-17T04:53:51.276Z,101522.55
2022-10-17T04:56:26.121Z,101521.79
2022-10-17T04:58:59.419Z,101525.53
2022-10-17T05:01:31.656Z,101526.72
2022-10-17T05:04:04.287Z,101526.29
2022-10-17T05:06:37.806Z,101525.92
2022-10-17T05:09:33.286Z,101531.39
2022-10-17T05:12:09.490Z,101530.08
2022-10-17T05:14:46.854Z,101531.31
2022-10-17T05:17:20.320Z,101529.42
2022-10-17T05:19:52.581Z,101527.23
2022-10-17T05:22:24.435Z,101525.23
2022-10-17T05:24:56.435Z,101514.59
2022-10-17T05:27:29.446Z,101528.16
2022-10-17T05:30:02.698Z,101525.89
2022-10-17T05:32:35.740Z,101527.42
2022-10-17T05:35:08.885Z,101531.83
2022-10-17T05:37:43.931Z,101535.75
2022-10-17T05:40:16.757Z,101540.79
2022-10-17T05:42:51.781Z,101541.48
2022-10-17T05:45:24.217Z,101542.80
2022-10-17T05:47:56.260Z,101548.41
2022-10-17T05:50:28.353Z,101550.73
2022-10-17T05:53:14.351Z,101556.90
2022-10-17T05:55:58.265Z,101560.34
2022-10-17T06:01:51.910Z,101565.27
2022-10-17T06:04:24.097Z,101568.73
2022-10-17T06:06:57.323Z,101570.64
2022-10-17T06:09:29.745Z,101575.54
2022-10-17T06:12:02.102Z,101575.80
2022-10-17T06:14:34.786Z,101580.81
2022-10-17T06:17:12.139Z,101579.41
2022-10-17T06:19:47.078Z,101582.38
2022-10-17T06:22:20.408Z,101584.83
2022-10-17T06:24:53.744Z,101593.49
2022-10-17T06:27:25.703Z,101595.86
2022-10-17T06:29:57.866Z,101600.86
2022-10-17T06:32:30.455Z,101586.02
2022-10-17T06:35:02.866Z,101604.57
2022-10-17T06:37:37.655Z,101599.42
2022-10-17T06:40:17.271Z,101597.94
2022-10-17T06:42:50.150Z,101597.19
2022-10-17T06:45:30.921Z,101603.48
2022-10-17T06:48:19.682Z,101602.61
2022-10-17T06:51:13.199Z,101606.66
2022-10-17T06:53:59.734Z,101604.13
2022-10-17T06:56:38.954Z,101603.73
2022-10-17T06:59:26.357Z,101593.94
2022-10-17T07:02:05.452Z,101606.65
2022-10-17T07:04:37.859Z,101606.46
2022-10-17T07:07:09.793Z,101609.93
2022-10-17T07:09:42.717Z,101614.00
2022-10-17T07:12:15.417Z,101610.16
2022-10-17T07:14:50.706Z,101616.31
2022-10-17T07:17:22.994Z,101602.61
2022-10-17T07:19:55.360Z,101613.52
2022-10-17T07:22:27.459Z,101613.75
2022-10-17T07:25:00.799Z,101611.59
2022-10-17T07:27:36.529Z,101614.20
2022-10-17T07:30:12.681Z,101614.03
2022-10-17T07:32:48.035Z,101612.87
2022-10-17T07:35:20.337Z,101616.39
2022-10-17T07:37:53.151Z,101612.88
2022-10-17T07:40:26.550Z,101614.95
2022-10-17T07:42:58.564Z,101613.09
2022-10-17T07:45:31.647Z,101607.39
2022-10-17T07:48:03.761Z,101613.98
2022-10-17T07:50:36.303Z,101612.68
2022-10-17T07:53:08.258Z,101608.98
2022-10-17T07:55:41.710Z,101608.23
2022-10-17T07:58:14.706Z,101600.19
2022-10-17T08:00:48.561Z,101588.60
2022-10-17T08:03:20.717Z,101599.91
2022-10-17T08:05:52.692Z,101597.10
2022-10-17T08:08:24.571Z,101597.02
2022-10-17T08:10:57.336Z,101601.73
2022-10-17T08:13:29.347Z,101602.32
2022-10-17T08:16:03.911Z,101606.05
2022-10-17T08:18:34.816Z,101606.70
2022-10-17T08:21:08.591Z,101601.09
2022-10-17T08:23:41.001Z,101603.02
2022-10-17T08:26:13.625Z,101603.27
2022-10-17T08:28:45.779Z,101603.27
2022-10-17T08:31:19.283Z,101604.46
2022-10-17T08:33:52.969Z,101605.13
2022-10-17T08:36:25.263Z,101581.39
2022-10-17T08:38:57.429Z,101604.85
2022-10-17T08:41:42.022Z,101607.73
2022-10-17T08:44:24.443Z,101605.71
2022-10-17T08:46:59.964Z,101604.64
2022-10-17T08:49:40.354Z,101603.33
2022-10-17T08:52:21.576Z,101602.98
2022-10-17T08:54:53.742Z,101602.20
2022-10-17T08:57:25.833Z,101602.51
2022-10-17T08:59:57.963Z,101599.23
2022-10-17T09:02:44.898Z,101594.31
2022-10-17T09:05:47.175Z,101594.16
2022-10-17T09:08:32.368Z,101592.85
2022-10-17T09:11:11.340Z,101592.71
2022-10-17T09:14:09.244Z,101588.94
2022-10-17T09:16:59.662Z,101595.50
2022-10-17T09:19:36.347Z,101595.86
2022-10-17T09:22:14.440Z,101595.79
2022-10-17T09:24:51.546Z,101596.77
2022-10-17T09:27:27.551Z,101598.17
2022-10-17T09:30:40.121Z,101596.02
2022-10-17T09:33:28.258Z,101589.16
2022-10-17T09:36:11.730Z,101587.70
2022-10-17T09:38:45.719Z,101584.08
2022-10-17T09:41:43.720Z,101584.00
2022-10-17T09:44:18.165Z,101586.40
2022-10-17T09:47:00.907Z,101587.37
2022-10-17T09:49:35.577Z,101575.81
2022-10-17T09:52:12.287Z,101585.09
2022-10-17T09:54:47.906Z,101586.39
2022-10-17T09:57:21.947Z,101578.01
2022-10-17T10:00:02.561Z,101592.83
2022-10-17T10:02:40.770Z,101586.86
2022-10-17T10:05:21.663Z,101588.52
2022-10-17T10:08:05.917Z,101590.53
2022-10-17T10:10:37.910Z,101589.86
2022-10-17T10:13:20.415Z,101587.74
2022-10-17T10:15:54.474Z,101586.09
2022-10-17T10:18:36.701Z,101589.69
2022-10-17T10:21:12.134Z,101590.00
2022-10-17T10:23:45.989Z,101588.02
2022-10-17T10:26:27.563Z,101589.52
2022-10-17T10:29:02.860Z,101590.39
2022-10-17T10:31:38.271Z,101586.17
2022-10-17T10:34:20.634Z,101585.35
2022-10-17T10:36:59.596Z,101585.14
2022-10-17T10:39:37.608Z,101579.85
2022-10-17T10:42:22.692Z,101574.42
2022-10-17T10:44:53.741Z,101574.48
2022-10-17T10:47:28.617Z,101568.42
2022-10-17T10:50:25.400Z,101564.79
2022-10-17T10:53:09.140Z,101569.63
2022-10-17T10:55:49.202Z,101569.09
2022-10-17T10:58:36.742Z,101566.93
2022-10-17T11:01:18.511Z,101563.70
2022-10-17T11:03:58.839Z,101562.20
2022-10-17T11:06:34.627Z,101564.27
2022-10-17T11:09:21.460Z,101565.77
2022-10-17T11:12:00.003Z,101561.61
2022-10-17T11:14:40.144Z,101562.36
2022-10-17T11:17:20.555Z,101558.55
2022-10-17T11:20:03.095Z,101560.45
2022-10-17T11:22:38.738Z,101555.83
2022-10-17T11:25:23.364Z,101557.56
2022-10-17T11:27:55.263Z,101553.20
2022-10-17T11:30:33.666Z,101549.01
2022-10-17T11:33:07.570Z,101549.03
2022-10-17T11:35:42.926Z,101546.11
2022-10-17T11:38:21.223Z,101545.33
2022-10-17T11:40:57.155Z,101547.61
2022-10-17T11:43:33.411Z,101541.65
2022-10-17T11:46:19.049Z,101541.39
2022-10-17T11:49:03.312Z,101546.15
2022-10-17T11:52:03.075Z,101543.75
2022-10-17T11:54:40.551Z,101542.78
2022-10-17T11:57:33.197Z,101546.55
2022-10-17T12:00:22.137Z,101548.02
2022-10-17T12:03:06.773Z,101543.83
2022-10-17T12:05:47.793Z,101538.98
2022-10-17T12:08:31.254Z,101533.11
2022-10-17T12:11:12.292Z,101533.20
2022-10-17T12:13:53.168Z,101527.50
2022-10-17T12:16:44.706Z,101529.54
2022-10-17T12:19:32.603Z,101528.06
2022-10-17T12:22:26.409Z,101527.17
2022-10-17T12:25:02.032Z,101516.55
2022-10-17T12:27:51.199Z,101515.20
2022-10-17T12:30:28.668Z,101517.95
2022-10-17T12:33:22.550Z,101516.15
2022-10-17T12:36:48.926Z,101510.71
2022-10-17T12:39:52.768Z,101512.51
2022-10-17T12:42:50.379Z,101513.68
2022-10-17T12:45:53.406Z,101511.73
2022-10-17T12:49:02.126Z,101513.39
2022-10-17T12:52:18.006Z,101508.29
2022-10-17T12:55:00.487Z,101507.01
2022-10-17T12:57:45.868Z,101506.40
2022-10-17T13:00:23.267Z,101504.57
2022-10-17T13:03:03.159Z,101505.38
2022-10-17T13:05:38.407Z,101509.30
2022-10-17T13:08:19.307Z,101507.91
2022-10-17T13:10:53.819Z,101502.44
2022-10-17T13:13:37.467Z,101499.17
2022-10-17T13:16:10.279Z,101497.70
2022-10-17T13:18:42.388Z,101493.94
2022-10-17T13:21:18.905Z,101494.25
2022-10-17T13:23:53.269Z,101495.06
2022-10-17T13:26:27.223Z,101489.59
2022-10-17T13:29:11.639Z,101486.52
2022-10-17T13:31:45.750Z,101483.27
2022-10-17T13:34:21.663Z,101482.32
2022-10-17T13:36:56.497Z,101475.65
2022-10-17T13:39:45.605Z,101476.67
2022-10-17T13:42:24.913Z,101478.79
2022-10-17T13:44:58.361Z,101479.48
2022-10-17T13:47:33.702Z,101476.25
2022-10-17T13:50:26.493Z,101470.60
2022-10-17T13:53:31.705Z,101471.56
2022-10-17T13:56:26.808Z,101461.90
2022-10-17T13:59:01.491Z,101460.08
2022-10-17T14:01:34.255Z,101456.67
2022-10-17T14:04:14.175Z,101452.81
2022-10-17T14:06:52.549Z,101456.29
2022-10-17T14:09:28.030Z,101457.30
2022-10-17T14:12:03.532Z,101454.05
2022-10-17T14:14:57.972Z,101458.60
2022-10-17T14:17:31.129Z,101454.98
2022-10-17T14:20:34.492Z,101457.61
2022-10-17T14:26:08.676Z,101466.98
2022-10-17T14:28:41.222Z,101461.88
2022-10-17T14:31:26.366Z,101461.66
2022-10-17T14:33:59.255Z,101460.45
2022-10-17T14:36:38.989Z,101464.85
2022-10-17T14:39:21.867Z,101449.19
2022-10-17T14:41:54.314Z,101462.77
2022-10-17T14:44:30.389Z,101468.45
2022-10-17T14:47:24.055Z,101467.13
2022-10-17T14:50:26.926Z,101462.69
2022-10-17T14:53:08.289Z,101466.42
2022-10-17T14:55:42.197Z,101469.02
2022-10-17T14:58:25.342Z,101467.11
2022-10-17T15:00:57.570Z,101465.88
2022-10-17T15:03:29.692Z,101452.61
2022-10-17T15:06:16.730Z,101463.20
2022-10-17T15:08:48.733Z,101465.77
2022-10-17T15:11:20.683Z,101469.84
2022-10-17T15:13:52.797Z,101464.74
2022-10-17T15:16:27.204Z,101463.49
2022-10-17T15:18:59.443Z,101452.80
2022-10-17T15:21:39.475Z,101436.50
2022-10-17T15:24:15.099Z,101452.14
2022-10-17T15:26:47.353Z,101449.38
2022-10-17T15:29:19.345Z,101453.61
2022-10-17T15:31:51.259Z,101456.17
2022-10-17T15:34:23.650Z,101451.32
2022-10-17T15:36:56.740Z,101437.70
2022-10-17T15:39:28.940Z,101452.45
2022-10-17T15:42:00.882Z,101452.61
2022-10-17T15:44:33.451Z,101456.84
2022-10-17T15:47:05.744Z,101448.98
2022-10-17T15:49:37.992Z,101452.29
2022-10-17T15:52:11.462Z,101452.80
2022-10-17T15:54:43.454Z,101443.30
2022-10-17T15:57:20.779Z,101455.23
2022-10-17T15:59:53.940Z,101454.83
2022-10-17T16:02:26.873Z,101460.14
2022-10-17T16:04:58.816Z,101460.33
2022-10-17T16:07:31.663Z,101450.05
2022-10-17T16:10:04.117Z,101463.38
2022-10-17T16:12:41.242Z,101463.07
2022-10-17T16:15:16.644Z,101465.45
2022-10-17T16:17:49.006Z,101464.92
2022-10-17T16:20:21.683Z,101463.72
2022-10-17T16:22:59.724Z,101447.95
2022-10-17T16:25:33.401Z,101464.42
2022-10-17T16:28:06.335Z,101459.80
2022-10-17T16:30:46.144Z,101463.79
2022-10-17T16:33:18.078Z,101462.11
2022-10-17T16:35:50.697Z,101460.43
2022-10-17T16:38:23.082Z,101462.06
2022-10-17T16:40:55.249Z,101463.92
2022-10-17T16:43:27.296Z,101464.84
2022-10-17T16:45:59.167Z,101466.88
2022-10-17T16:48:31.265Z,101462.77
2022-10-17T16:51:04.754Z,101446.74
2022-10-17T16:53:40.035Z,101463.19
2022-10-17T16:56:14.300Z,101461.42
2022-10-17T16:58:47.217Z,101461.98
2022-10-17T17:01:23.124Z,101461.75
2022-10-17T17:03:56.468Z,101464.91
2022-10-17T17:06:30.628Z,101464.19
2022-10-17T17:09:03.142Z,101464.12
2022-10-17T17:11:35.457Z,101463.69
2022-10-17T17:14:08.162Z,101467.23
2022-10-17T17:16:40.405Z,101466.58
2022-10-17T17:19:16.950Z,101463.04
2022-10-17T17:21:50.915Z,101463.85
2022-10-17T17:24:24.058Z,101464.88
2022-10-17T17:26:57.888Z,101471.83
2022-10-17T17:29:29.807Z,101473.02
2022-10-17T17:32:02.039Z,101470.12
2022-10-17T17:34:38.445Z,101476.25
2022-10-17T17:37:10.430Z,101473.91
2022-10-17T17:39:42.784Z,101472.85
2022-10-17T17:42:15.104Z,101471.55
2022-10-17T17:44:49.808Z,101470.75
2022-10-17T17:47:21.707Z,101468.10
2022-10-17T17:49:53.702Z,101470.83
2022-10-17T17:52:25.899Z,101469.21
2022-10-17T17:54:58.168Z,101466.61
2022-10-17T17:57:31.713Z,101450.48
2022-10-17T18:00:03.844Z,101469.02
2022-10-17T18:02:40.730Z,101463.77
2022-10-17T18:05:16.035Z,101455.96
2022-10-17T18:07:48.779Z,101460.86
2022-10-17T18:10:21.635Z,101463.52
2022-10-17T18:12:53.602Z,101457.05
2022-10-17T18:15:25.695Z,101454.52
2022-10-17T18:17:57.607Z,101453.23
2022-10-17T18:20:30.208Z,101452.87
2022-10-17T18:23:04.146Z,101455.11
2022-10-17T18:25:36.603Z,101452.05
2022-10-17T18:28:09.124Z,101455.23
2022-10-17T18:30:41.571Z,101452.25
2022-10-17T18:33:13.607Z,101459.39
2022-10-17T18:35:46.335Z,101457.30
2022-10-17T18:38:18.796Z,101458.17
2022-10-17T18:40:51.402Z,101462.69
2022-10-17T18:43:23.295Z,101460.02
2022-10-17T18:46:03.943Z,101461.48
2022-10-17T18:48:37.250Z,101435.50
2022-10-17T18:51:10.138Z,101458.49
2022-10-17T18:53:44.051Z,101459.12
2022-10-17T18:56:16.320Z,101458.00
2022-10-17T18:58:48.283Z,101454.54
2022-10-17T19:01:23.006Z,101454.59
2022-10-17T19:03:57.209Z,101454.61
2022-10-17T19:06:32.225Z,101451.95
2022-10-17T19:09:06.133Z,101448.35
2022-10-17T19:11:39.926Z,101448.67
2022-10-17T19:14:14.032Z,101457.38
2022-10-17T19:16:49.032Z,101455.75
2022-10-17T19:19:24.053Z,101457.92
2022-10-17T19:21:56.436Z,101449.41
2022-10-17T19:24:29.163Z,101445.40
2022-10-17T19:27:02.744Z,101439.27
2022-10-17T19:29:35.120Z,101428.57
2022-10-17T19:32:14.108Z,101429.14
2022-10-17T19:34:48.871Z,101441.73
2022-10-17T19:37:20.867Z,101445.90
2022-10-17T19:39:53.239Z,101446.55
2022-10-17T19:42:25.799Z,101452.77
2022-10-17T19:44:57.713Z,101455.91
2022-10-17T19:47:30.294Z,101449.52
2022-10-17T19:52:40.393Z,101435.86
2022-10-17T19:55:14.357Z,101456.68
2022-10-17T19:57:46.360Z,101456.52
2022-10-17T20:00:18.904Z,101458.25
2022-10-17T20:02:50.929Z,101462.80
2022-10-17T20:05:27.289Z,101472.59
2022-10-17T20:08:00.450Z,101473.73
2022-10-17T20:10:32.661Z,101474.13
2022-10-17T20:13:05.223Z,101476.54
2022-10-17T20:15:37.432Z,101477.81
2022-10-17T20:18:11.381Z,101481.27
2022-10-17T20:20:43.326Z,101481.25
2022-10-17T20:23:15.457Z,101481.00
2022-10-17T20:25:50.495Z,101480.91
2022-10-17T20:28:29.169Z,101480.80
2022-10-17T20:31:05.505Z,101486.52
2022-10-17T20:33:37.580Z,101484.41
2022-10-17T20:36:11.283Z,101487.20
2022-10-17T20:38:43.808Z,101479.45
2022-10-17T20:41:15.711Z,101484.48
2022-10-17T20:43:48.189Z,101489.46
2022-10-17T20:46:36.230Z,101486.88
2022-10-17T20:49:11.949Z,101487.73
2022-10-17T20:51:44.540Z,101486.70
2022-10-17T20:54:17.046Z,101487.15
2022-10-17T20:56:48.947Z,101490.75
2022-10-17T20:59:21.646Z,101485.99
2022-10-17T21:01:55.059Z,101492.30
2022-10-17T21:04:45.328Z,101496.14
2022-10-17T21:07:18.348Z,101491.54
2022-10-17T21:09:50.615Z,101491.27
2022-10-17T21:12:42.837Z,101478.10
2022-10-17T21:15:15.230Z,101496.69
2022-10-17T21:17:47.403Z,101495.70
2022-10-17T21:20:19.669Z,101497.04
2022-10-17T21:22:52.336Z,101498.63
2022-10-17T21:25:24.514Z,101498.51
2022-10-17T21:27:56.371Z,101495.23
2022-10-17T21:30:28.267Z,101488.02
2022-10-17T21:33:00.737Z,101487.92
2022-10-17T21:35:32.681Z,101489.07
2022-10-17T21:38:04.630Z,101489.30
2022-10-17T21:40:36.519Z,101494.00
2022-10-17T21:43:08.458Z,101493.67
2022-10-17T21:45:40.909Z,101482.95
2022-10-17T21:48:13.567Z,101500.30
2022-10-17T21:50:46.025Z,101501.02
2022-10-17T21:53:17.861Z,101497.94
2022-10-17T21:55:49.773Z,101500.23
2022-10-17T21:58:22.335Z,101503.67
2022-10-17T22:00:54.477Z,101499.89
2022-10-17T22:03:26.477Z,101503.75
2022-10-17T22:06:07.151Z,101502.55
2022-10-17T22:08:51.805Z,101501.09
2022-10-17T22:11:27.213Z,101502.30
2022-10-17T22:14:01.602Z,101497.83
2022-10-17T22:16:34.318Z,101498.09
2022-10-17T22:19:08.251Z,101490.30
2022-10-17T22:21:40.421Z,101486.40
2022-10-17T22:24:15.825Z,101489.50
2022-10-17T22:26:48.596Z,101489.10
2022-10-17T22:29:20.857Z,101488.89
2022-10-17T22:31:53.222Z,101490.91
2022-10-17T22:34:25.623Z,101493.40
2022-10-17T22:36:57.651Z,101486.00
2022-10-17T22:39:29.607Z,101478.58
2022-10-17T22:42:01.671Z,101484.55
2022-10-17T22:44:33.589Z,101488.37
2022-10-17T22:47:05.494Z,101486.13
2022-10-17T22:49:37.307Z,101483.73
2022-10-17T22:52:09.437Z,101486.23
2022-10-17T22:54:41.249Z,101486.00
2022-10-17T22:57:14.742Z,101487.44
2022-10-17T22:59:46.760Z,101478.59
2022-10-17T23:02:18.954Z,101487.57
2022-10-17T23:04:51.024Z,101492.13
2022-10-17T23:07:22.906Z,101490.04
2022-10-17T23:09:55.334Z,101489.79
2022-10-17T23:12:27.747Z,101484.45
2022-10-17T23:14:59.704Z,101484.08
2022-10-17T23:17:32.369Z,101484.61
2022-10-17T23:20:04.385Z,101477.31
2022-10-17T23:22:36.463Z,101483.02
2022-10-17T23:25:10.747Z,101482.54
2022-10-17T23:27:43.805Z,101486.19
2022-10-17T23:30:16.195Z,101487.45
2022-10-17T23:32:48.595Z,101485.11
2022-10-17T23:35:20.745Z,101480.10
2022-10-17T23:37:52.775Z,101477.83
2022-10-17T23:40:25.008Z,101476.83
2022-10-17T23:42:56.968Z,101468.02
2022-10-17T23:45:32.148Z,101484.00
2022-10-17T23:48:06.105Z,101478.27
2022-10-17T23:50:37.975Z,101484.33
2022-10-17T23:53:09.916Z,101485.09
2022-10-17T23:55:41.727Z,101482.66
2022-10-17T23:58:14.036Z,101473.70
